sensor_id;sensor_type;location;lat;lon;timestamp;P1;durP1;ratioP1;P2;durP2;ratioP2
52126;SDS011;38120;53.176;6.614;2022-12-29T00:02:22;6.40;;;3.47;;
52126;SDS011;38120;53.176;6.614;2022-12-29T00:04:49;5.37;;;3.70;;
52126;SDS011;38120;53.176;6.614;2022-12-29T00:07:15;8.43;;;5.10;;
52126;SDS011;38120;53.176;6.614;2022-12-29T00:12:26;5.47;;;3.42;;
52126;SDS011;38120;53.176;6.614;2022-12-29T00:15:29;5.30;;;3.47;;
52126;SDS011;38120;53.176;6.614;2022-12-29T00:18:04;5.05;;;3.70;;
52126;SDS011;38120;53.176;6.614;2022-12-29T00:23:16;6.03;;;3.85;;
52126;SDS011;38120;53.176;6.614;2022-12-29T00:26:02;6.93;;;3.47;;
52126;SDS011;38120;53.176;6.614;2022-12-29T00:28:47;5.30;;;4.00;;
52126;SDS011;38120;53.176;6.614;2022-12-29T00:31:31;8.27;;;4.75;;
52126;SDS011;38120;53.176;6.614;2022-12-29T00:34:15;7.05;;;4.40;;
52126;SDS011;38120;53.176;6.614;2022-12-29T00:36:59;6.38;;;4.00;;
52126;SDS011;38120;53.176;6.614;2022-12-29T00:39:25;7.03;;;3.90;;
52126;SDS011;38120;53.176;6.614;2022-12-29T00:42:09;5.80;;;3.47;;
52126;SDS011;38120;53.176;6.614;2022-12-29T00:44:53;6.10;;;4.13;;
52126;SDS011;38120;53.176;6.614;2022-12-29T00:47:19;6.00;;;3.97;;
52126;SDS011;38120;53.176;6.614;2022-12-29T00:49:45;5.27;;;3.43;;
52126;SDS011;38120;53.176;6.614;2022-12-29T00:52:11;5.47;;;3.33;;
52126;SDS011;38120;53.176;6.614;2022-12-29T00:54:38;5.75;;;3.67;;
52126;SDS011;38120;53.176;6.614;2022-12-29T00:57:06;7.13;;;3.65;;
52126;SDS011;38120;53.176;6.614;2022-12-29T00:59:37;4.55;;;3.28;;
52126;SDS011;38120;53.176;6.614;2022-12-29T01:02:04;6.60;;;3.75;;
52126;SDS011;38120;53.176;6.614;2022-12-29T01:04:30;6.78;;;3.83;;
52126;SDS011;38120;53.176;6.614;2022-12-29T01:06:56;5.60;;;3.70;;
52126;SDS011;38120;53.176;6.614;2022-12-29T01:09:21;6.87;;;3.73;;
52126;SDS011;38120;53.176;6.614;2022-12-29T01:12:06;3.95;;;3.05;;
52126;SDS011;38120;53.176;6.614;2022-12-29T01:14:33;4.70;;;3.50;;
52126;SDS011;38120;53.176;6.614;2022-12-29T01:17:17;5.20;;;3.60;;
52126;SDS011;38120;53.176;6.614;2022-12-29T01:19:43;6.97;;;4.17;;
52126;SDS011;38120;53.176;6.614;2022-12-29T01:22:09;5.10;;;3.23;;
52126;SDS011;38120;53.176;6.614;2022-12-29T01:24:34;6.07;;;3.17;;
52126;SDS011;38120;53.176;6.614;2022-12-29T01:27:00;5.37;;;3.70;;
52126;SDS011;38120;53.176;6.614;2022-12-29T01:29:26;5.75;;;3.10;;
52126;SDS011;38120;53.176;6.614;2022-12-29T01:31:51;8.60;;;3.30;;
52126;SDS011;38120;53.176;6.614;2022-12-29T01:34:17;7.00;;;3.33;;
52126;SDS011;38120;53.176;6.614;2022-12-29T01:36:43;6.60;;;4.20;;
52126;SDS011;38120;53.176;6.614;2022-12-29T01:39:09;5.65;;;3.75;;
52126;SDS011;38120;53.176;6.614;2022-12-29T01:41:35;4.68;;;3.42;;
52126;SDS011;38120;53.176;6.614;2022-12-29T01:44:00;5.80;;;3.63;;
52126;SDS011;38120;53.176;6.614;2022-12-29T01:46:36;5.03;;;3.85;;
52126;SDS011;38120;53.176;6.614;2022-12-29T01:51:39;6.15;;;3.65;;
52126;SDS011;38120;53.176;6.614;2022-12-29T01:54:09;5.18;;;3.75;;
52126;SDS011;38120;53.176;6.614;2022-12-29T01:56:39;5.85;;;3.40;;
52126;SDS011;38120;53.176;6.614;2022-12-29T01:59:06;5.50;;;3.22;;
52126;SDS011;38120;53.176;6.614;2022-12-29T02:01:37;9.38;;;3.33;;
52126;SDS011;38120;53.176;6.614;2022-12-29T02:04:03;7.03;;;3.70;;
52126;SDS011;38120;53.176;6.614;2022-12-29T02:06:32;6.00;;;4.00;;
52126;SDS011;38120;53.176;6.614;2022-12-29T02:09:01;5.72;;;3.45;;
52126;SDS011;38120;53.176;6.614;2022-12-29T02:11:28;4.93;;;3.05;;
52126;SDS011;38120;53.176;6.614;2022-12-29T02:13:55;5.85;;;3.13;;
52126;SDS011;38120;53.176;6.614;2022-12-29T02:22:05;5.07;;;3.10;;
52126;SDS011;38120;53.176;6.614;2022-12-29T02:24:43;5.00;;;3.45;;
52126;SDS011;38120;53.176;6.614;2022-12-29T02:27:48;6.47;;;2.70;;
52126;SDS011;38120;53.176;6.614;2022-12-29T02:33:35;7.57;;;2.55;;
52126;SDS011;38120;53.176;6.614;2022-12-29T02:47:40;5.10;;;2.67;;
52126;SDS011;38120;53.176;6.614;2022-12-29T02:52:46;4.53;;;2.42;;
52126;SDS011;38120;53.176;6.614;2022-12-29T02:55:19;4.82;;;2.50;;
52126;SDS011;38120;53.176;6.614;2022-12-29T02:57:45;4.57;;;2.65;;
52126;SDS011;38120;53.176;6.614;2022-12-29T03:00:15;4.13;;;2.55;;
52126;SDS011;38120;53.176;6.614;2022-12-29T03:08:26;3.78;;;1.80;;
52126;SDS011;38120;53.176;6.614;2022-12-29T03:11:02;5.30;;;2.15;;
52126;SDS011;38120;53.176;6.614;2022-12-29T03:14:03;4.18;;;2.22;;
52126;SDS011;38120;53.176;6.614;2022-12-29T03:17:29;4.95;;;1.88;;
52126;SDS011;38120;53.176;6.614;2022-12-29T03:20:14;3.95;;;1.73;;
52126;SDS011;38120;53.176;6.614;2022-12-29T03:22:46;2.63;;;1.52;;
52126;SDS011;38120;53.176;6.614;2022-12-29T03:25:16;5.63;;;2.40;;
52126;SDS011;38120;53.176;6.614;2022-12-29T03:27:46;2.75;;;1.55;;
52126;SDS011;38120;53.176;6.614;2022-12-29T03:30:15;3.53;;;1.65;;
52126;SDS011;38120;53.176;6.614;2022-12-29T03:32:42;3.42;;;1.85;;
52126;SDS011;38120;53.176;6.614;2022-12-29T03:35:16;3.40;;;1.33;;
52126;SDS011;38120;53.176;6.614;2022-12-29T03:37:55;6.45;;;2.22;;
52126;SDS011;38120;53.176;6.614;2022-12-29T03:40:25;3.05;;;1.40;;
52126;SDS011;38120;53.176;6.614;2022-12-29T03:42:57;3.03;;;1.40;;
52126;SDS011;38120;53.176;6.614;2022-12-29T03:45:24;5.03;;;1.45;;
52126;SDS011;38120;53.176;6.614;2022-12-29T03:47:50;4.25;;;1.55;;
52126;SDS011;38120;53.176;6.614;2022-12-29T03:53:02;2.92;;;1.35;;
52126;SDS011;38120;53.176;6.614;2022-12-29T03:55:28;3.88;;;1.60;;
52126;SDS011;38120;53.176;6.614;2022-12-29T03:57:54;2.67;;;1.70;;
52126;SDS011;38120;53.176;6.614;2022-12-29T04:00:20;4.45;;;1.77;;
52126;SDS011;38120;53.176;6.614;2022-12-29T04:02:46;3.05;;;1.48;;
52126;SDS011;38120;53.176;6.614;2022-12-29T04:05:12;4.93;;;1.48;;
52126;SDS011;38120;53.176;6.614;2022-12-29T04:07:38;2.28;;;1.15;;
52126;SDS011;38120;53.176;6.614;2022-12-29T04:10:04;7.07;;;1.52;;
52126;SDS011;38120;53.176;6.614;2022-12-29T04:12:30;4.03;;;1.40;;
52126;SDS011;38120;53.176;6.614;2022-12-29T04:14:56;4.10;;;1.30;;
52126;SDS011;38120;53.176;6.614;2022-12-29T04:17:21;3.00;;;1.37;;
52126;SDS011;38120;53.176;6.614;2022-12-29T04:19:47;3.50;;;1.47;;
52126;SDS011;38120;53.176;6.614;2022-12-29T04:22:13;3.22;;;1.80;;
52126;SDS011;38120;53.176;6.614;2022-12-29T04:24:39;4.90;;;1.40;;
52126;SDS011;38120;53.176;6.614;2022-12-29T04:27:05;2.70;;;1.25;;
52126;SDS011;38120;53.176;6.614;2022-12-29T04:29:30;4.00;;;1.20;;
52126;SDS011;38120;53.176;6.614;2022-12-29T04:31:56;4.53;;;1.13;;
52126;SDS011;38120;53.176;6.614;2022-12-29T04:34:22;5.97;;;1.27;;
52126;SDS011;38120;53.176;6.614;2022-12-29T04:39:32;6.90;;;1.48;;
52126;SDS011;38120;53.176;6.614;2022-12-29T04:41:59;3.55;;;1.00;;
52126;SDS011;38120;53.176;6.614;2022-12-29T04:44:25;3.83;;;1.27;;
52126;SDS011;38120;53.176;6.614;2022-12-29T04:46:50;7.17;;;1.60;;
52126;SDS011;38120;53.176;6.614;2022-12-29T04:49:31;4.13;;;1.02;;
52126;SDS011;38120;53.176;6.614;2022-12-29T04:54:42;3.80;;;1.05;;
52126;SDS011;38120;53.176;6.614;2022-12-29T04:57:07;3.63;;;1.37;;
52126;SDS011;38120;53.176;6.614;2022-12-29T04:59:33;4.97;;;1.17;;
52126;SDS011;38120;53.176;6.614;2022-12-29T05:01:59;5.93;;;2.83;;
52126;SDS011;38120;53.176;6.614;2022-12-29T05:04:43;4.33;;;1.10;;
52126;SDS011;38120;53.176;6.614;2022-12-29T05:07:08;6.85;;;1.55;;
52126;SDS011;38120;53.176;6.614;2022-12-29T05:09:34;10.90;;;1.73;;
52126;SDS011;38120;53.176;6.614;2022-12-29T05:12:00;7.70;;;2.05;;
52126;SDS011;38120;53.176;6.614;2022-12-29T05:14:26;3.63;;;1.27;;
52126;SDS011;38120;53.176;6.614;2022-12-29T05:16:52;5.35;;;1.63;;
52126;SDS011;38120;53.176;6.614;2022-12-29T05:19:17;3.58;;;1.30;;
52126;SDS011;38120;53.176;6.614;2022-12-29T05:21:43;5.22;;;1.35;;
52126;SDS011;38120;53.176;6.614;2022-12-29T05:24:09;5.50;;;1.87;;
52126;SDS011;38120;53.176;6.614;2022-12-29T05:26:34;6.22;;;1.85;;
52126;SDS011;38120;53.176;6.614;2022-12-29T05:29:00;5.65;;;1.73;;
52126;SDS011;38120;53.176;6.614;2022-12-29T05:31:26;5.13;;;1.60;;
52126;SDS011;38120;53.176;6.614;2022-12-29T05:33:52;6.90;;;1.83;;
52126;SDS011;38120;53.176;6.614;2022-12-29T05:36:18;4.63;;;2.25;;
52126;SDS011;38120;53.176;6.614;2022-12-29T05:38:45;6.80;;;1.30;;
52126;SDS011;38120;53.176;6.614;2022-12-29T05:41:10;4.30;;;1.73;;
52126;SDS011;38120;53.176;6.614;2022-12-29T05:43:36;6.73;;;1.90;;
52126;SDS011;38120;53.176;6.614;2022-12-29T05:46:02;10.27;;;2.58;;
52126;SDS011;38120;53.176;6.614;2022-12-29T05:48:47;7.75;;;1.92;;
52126;SDS011;38120;53.176;6.614;2022-12-29T05:51:13;9.10;;;2.22;;
52126;SDS011;38120;53.176;6.614;2022-12-29T05:53:39;8.55;;;1.80;;
52126;SDS011;38120;53.176;6.614;2022-12-29T05:56:04;6.90;;;2.00;;
52126;SDS011;38120;53.176;6.614;2022-12-29T05:58:30;8.25;;;1.98;;
52126;SDS011;38120;53.176;6.614;2022-12-29T06:00:56;11.37;;;2.20;;
52126;SDS011;38120;53.176;6.614;2022-12-29T06:03:22;6.60;;;1.67;;
52126;SDS011;38120;53.176;6.614;2022-12-29T06:05:48;7.32;;;2.00;;
52126;SDS011;38120;53.176;6.614;2022-12-29T06:08:13;13.27;;;2.97;;
52126;SDS011;38120;53.176;6.614;2022-12-29T06:10:39;8.67;;;2.50;;
52126;SDS011;38120;53.176;6.614;2022-12-29T06:13:05;6.43;;;1.63;;
52126;SDS011;38120;53.176;6.614;2022-12-29T06:15:31;10.88;;;2.40;;
52126;SDS011;38120;53.176;6.614;2022-12-29T06:17:57;5.47;;;1.95;;
52126;SDS011;38120;53.176;6.614;2022-12-29T06:20:23;6.63;;;1.80;;
52126;SDS011;38120;53.176;6.614;2022-12-29T06:22:49;6.80;;;1.73;;
52126;SDS011;38120;53.176;6.614;2022-12-29T06:25:15;10.17;;;2.07;;
52126;SDS011;38120;53.176;6.614;2022-12-29T06:27:41;6.32;;;1.70;;
52126;SDS011;38120;53.176;6.614;2022-12-29T06:30:07;7.68;;;2.05;;
52126;SDS011;38120;53.176;6.614;2022-12-29T06:32:34;9.13;;;2.03;;
52126;SDS011;38120;53.176;6.614;2022-12-29T06:35:00;8.85;;;2.30;;
52126;SDS011;38120;53.176;6.614;2022-12-29T06:37:26;7.65;;;2.40;;
52126;SDS011;38120;53.176;6.614;2022-12-29T06:39:52;9.43;;;1.50;;
52126;SDS011;38120;53.176;6.614;2022-12-29T06:42:18;6.38;;;1.20;;
52126;SDS011;38120;53.176;6.614;2022-12-29T06:44:44;6.30;;;1.25;;
52126;SDS011;38120;53.176;6.614;2022-12-29T06:47:10;12.30;;;2.25;;
52126;SDS011;38120;53.176;6.614;2022-12-29T06:49:36;8.20;;;1.80;;
52126;SDS011;38120;53.176;6.614;2022-12-29T06:52:02;9.13;;;2.57;;
52126;SDS011;38120;53.176;6.614;2022-12-29T06:54:29;10.13;;;2.53;;
52126;SDS011;38120;53.176;6.614;2022-12-29T06:56:58;9.80;;;2.67;;
52126;SDS011;38120;53.176;6.614;2022-12-29T06:59:24;4.82;;;2.03;;
52126;SDS011;38120;53.176;6.614;2022-12-29T07:01:51;9.10;;;2.00;;
52126;SDS011;38120;53.176;6.614;2022-12-29T07:04:17;8.73;;;2.08;;
52126;SDS011;38120;53.176;6.614;2022-12-29T07:06:43;9.18;;;2.53;;
52126;SDS011;38120;53.176;6.614;2022-12-29T07:09:09;4.82;;;1.80;;
52126;SDS011;38120;53.176;6.614;2022-12-29T07:11:35;6.30;;;1.85;;
52126;SDS011;38120;53.176;6.614;2022-12-29T07:14:01;7.57;;;2.78;;
52126;SDS011;38120;53.176;6.614;2022-12-29T07:16:28;13.10;;;2.80;;
52126;SDS011;38120;53.176;6.614;2022-12-29T07:21:39;7.20;;;2.25;;
52126;SDS011;38120;53.176;6.614;2022-12-29T07:24:05;11.03;;;2.83;;
52126;SDS011;38120;53.176;6.614;2022-12-29T07:26:31;14.25;;;2.10;;
52126;SDS011;38120;53.176;6.614;2022-12-29T07:28:57;13.95;;;2.70;;
52126;SDS011;38120;53.176;6.614;2022-12-29T07:31:25;8.93;;;2.20;;
52126;SDS011;38120;53.176;6.614;2022-12-29T07:33:51;6.70;;;2.00;;
52126;SDS011;38120;53.176;6.614;2022-12-29T07:36:17;10.82;;;3.60;;
52126;SDS011;38120;53.176;6.614;2022-12-29T07:38:43;10.73;;;2.73;;
52126;SDS011;38120;53.176;6.614;2022-12-29T07:41:09;6.88;;;2.28;;
52126;SDS011;38120;53.176;6.614;2022-12-29T07:43:35;5.47;;;1.95;;
52126;SDS011;38120;53.176;6.614;2022-12-29T07:46:00;7.03;;;2.03;;
52126;SDS011;38120;53.176;6.614;2022-12-29T07:48:30;7.50;;;2.27;;
52126;SDS011;38120;53.176;6.614;2022-12-29T07:50:58;10.13;;;3.22;;
52126;SDS011;38120;53.176;6.614;2022-12-29T07:56:08;7.38;;;2.40;;
52126;SDS011;38120;53.176;6.614;2022-12-29T07:58:34;6.18;;;2.13;;
52126;SDS011;38120;53.176;6.614;2022-12-29T08:01:00;7.32;;;2.35;;
52126;SDS011;38120;53.176;6.614;2022-12-29T08:03:26;9.97;;;2.97;;
52126;SDS011;38120;53.176;6.614;2022-12-29T08:08:36;8.45;;;1.92;;
52126;SDS011;38120;53.176;6.614;2022-12-29T08:11:03;8.77;;;1.67;;
52126;SDS011;38120;53.176;6.614;2022-12-29T08:13:29;13.98;;;2.55;;
52126;SDS011;38120;53.176;6.614;2022-12-29T08:15:57;14.10;;;2.92;;
52126;SDS011;38120;53.176;6.614;2022-12-29T08:18:23;11.05;;;2.53;;
52126;SDS011;38120;53.176;6.614;2022-12-29T08:20:49;8.40;;;2.97;;
52126;SDS011;38120;53.176;6.614;2022-12-29T08:23:15;13.88;;;2.53;;
52126;SDS011;38120;53.176;6.614;2022-12-29T08:25:41;10.30;;;2.57;;
52126;SDS011;38120;53.176;6.614;2022-12-29T08:28:07;6.43;;;1.97;;
52126;SDS011;38120;53.176;6.614;2022-12-29T08:30:34;12.10;;;2.80;;
52126;SDS011;38120;53.176;6.614;2022-12-29T08:33:01;13.05;;;2.72;;
52126;SDS011;38120;53.176;6.614;2022-12-29T08:35:26;10.43;;;3.60;;
52126;SDS011;38120;53.176;6.614;2022-12-29T08:37:52;12.57;;;2.35;;
52126;SDS011;38120;53.176;6.614;2022-12-29T08:40:18;12.75;;;3.33;;
52126;SDS011;38120;53.176;6.614;2022-12-29T08:42:44;9.88;;;2.50;;
52126;SDS011;38120;53.176;6.614;2022-12-29T08:45:10;8.43;;;3.03;;
52126;SDS011;38120;53.176;6.614;2022-12-29T08:47:36;11.95;;;3.50;;
52126;SDS011;38120;53.176;6.614;2022-12-29T08:50:01;12.37;;;3.37;;
52126;SDS011;38120;53.176;6.614;2022-12-29T08:52:27;9.48;;;2.88;;
52126;SDS011;38120;53.176;6.614;2022-12-29T08:54:53;14.05;;;3.20;;
52126;SDS011;38120;53.176;6.614;2022-12-29T08:57:19;8.37;;;2.63;;
52126;SDS011;38120;53.176;6.614;2022-12-29T08:59:45;11.20;;;3.17;;
52126;SDS011;38120;53.176;6.614;2022-12-29T09:02:11;15.00;;;3.57;;
52126;SDS011;38120;53.176;6.614;2022-12-29T09:07:03;5.82;;;3.08;;
52126;SDS011;38120;53.176;6.614;2022-12-29T09:09:29;12.93;;;4.13;;
52126;SDS011;38120;53.176;6.614;2022-12-29T09:11:55;15.97;;;3.33;;
52126;SDS011;38120;53.176;6.614;2022-12-29T09:14:20;15.67;;;3.43;;
52126;SDS011;38120;53.176;6.614;2022-12-29T09:17:01;15.05;;;3.60;;
52126;SDS011;38120;53.176;6.614;2022-12-29T09:19:46;11.38;;;3.42;;
52126;SDS011;38120;53.176;6.614;2022-12-29T09:22:19;12.60;;;3.03;;
52126;SDS011;38120;53.176;6.614;2022-12-29T09:24:45;11.82;;;4.15;;
52126;SDS011;38120;53.176;6.614;2022-12-29T09:27:11;11.20;;;2.78;;
52126;SDS011;38120;53.176;6.614;2022-12-29T09:29:37;17.08;;;3.30;;
52126;SDS011;38120;53.176;6.614;2022-12-29T09:32:03;13.80;;;3.40;;
52126;SDS011;38120;53.176;6.614;2022-12-29T09:34:29;11.10;;;2.83;;
52126;SDS011;38120;53.176;6.614;2022-12-29T09:36:54;7.87;;;2.33;;
52126;SDS011;38120;53.176;6.614;2022-12-29T09:39:21;9.73;;;3.53;;
52126;SDS011;38120;53.176;6.614;2022-12-29T09:47:35;10.20;;;3.70;;
52126;SDS011;38120;53.176;6.614;2022-12-29T09:55:49;7.18;;;1.95;;
52126;SDS011;38120;53.176;6.614;2022-12-29T09:58:28;12.10;;;2.70;;
52126;SDS011;38120;53.176;6.614;2022-12-29T10:03:53;10.43;;;2.80;;
52126;SDS011;38120;53.176;6.614;2022-12-29T10:06:26;10.80;;;2.58;;
52126;SDS011;38120;53.176;6.614;2022-12-29T10:17:18;7.13;;;2.43;;
52126;SDS011;38120;53.176;6.614;2022-12-29T10:22:57;11.35;;;2.83;;
52126;SDS011;38120;53.176;6.614;2022-12-29T10:25:28;8.65;;;2.63;;
52126;SDS011;38120;53.176;6.614;2022-12-29T10:27:59;8.73;;;2.30;;
52126;SDS011;38120;53.176;6.614;2022-12-29T10:30:29;12.60;;;2.58;;
52126;SDS011;38120;53.176;6.614;2022-12-29T10:32:58;11.93;;;3.17;;
52126;SDS011;38120;53.176;6.614;2022-12-29T10:35:30;10.90;;;2.65;;
52126;SDS011;38120;53.176;6.614;2022-12-29T10:41:11;13.85;;;3.08;;
52126;SDS011;38120;53.176;6.614;2022-12-29T10:43:59;10.32;;;2.70;;
52126;SDS011;38120;53.176;6.614;2022-12-29T10:46:29;7.13;;;1.85;;
52126;SDS011;38120;53.176;6.614;2022-12-29T10:48:58;11.35;;;2.83;;
52126;SDS011;38120;53.176;6.614;2022-12-29T10:51:28;11.25;;;2.22;;
52126;SDS011;38120;53.176;6.614;2022-12-29T10:54:03;8.05;;;3.00;;
52126;SDS011;38120;53.176;6.614;2022-12-29T10:56:35;9.52;;;2.72;;
52126;SDS011;38120;53.176;6.614;2022-12-29T10:59:28;10.60;;;3.15;;
52126;SDS011;38120;53.176;6.614;2022-12-29T11:07:25;10.45;;;3.22;;
52126;SDS011;38120;53.176;6.614;2022-12-29T11:09:55;12.90;;;2.58;;
52126;SDS011;38120;53.176;6.614;2022-12-29T11:12:41;16.45;;;3.25;;
52126;SDS011;38120;53.176;6.614;2022-12-29T11:15:21;11.38;;;3.35;;
52126;SDS011;38120;53.176;6.614;2022-12-29T11:17:48;16.92;;;4.00;;
52126;SDS011;38120;53.176;6.614;2022-12-29T11:20:19;15.93;;;3.22;;
52126;SDS011;38120;53.176;6.614;2022-12-29T11:22:58;13.02;;;3.40;;
52126;SDS011;38120;53.176;6.614;2022-12-29T11:25:25;14.88;;;3.67;;
52126;SDS011;38120;53.176;6.614;2022-12-29T11:30:23;21.60;;;4.47;;
52126;SDS011;38120;53.176;6.614;2022-12-29T11:32:53;11.55;;;3.53;;
52126;SDS011;38120;53.176;6.614;2022-12-29T11:35:40;18.48;;;4.20;;
52126;SDS011;38120;53.176;6.614;2022-12-29T11:38:17;13.93;;;3.75;;
52126;SDS011;38120;53.176;6.614;2022-12-29T11:40:49;15.13;;;4.65;;
52126;SDS011;38120;53.176;6.614;2022-12-29T11:43:26;18.13;;;3.50;;
52126;SDS011;38120;53.176;6.614;2022-12-29T11:45:58;20.58;;;5.43;;
52126;SDS011;38120;53.176;6.614;2022-12-29T11:48:31;16.38;;;4.28;;
52126;SDS011;38120;53.176;6.614;2022-12-29T11:51:05;11.38;;;3.83;;
52126;SDS011;38120;53.176;6.614;2022-12-29T11:53:42;13.68;;;3.60;;
52126;SDS011;38120;53.176;6.614;2022-12-29T11:56:13;17.15;;;4.20;;
52126;SDS011;38120;53.176;6.614;2022-12-29T11:58:40;17.40;;;3.70;;
52126;SDS011;38120;53.176;6.614;2022-12-29T12:06:35;17.55;;;4.57;;
52126;SDS011;38120;53.176;6.614;2022-12-29T12:09:10;12.02;;;3.85;;
52126;SDS011;38120;53.176;6.614;2022-12-29T12:11:43;17.83;;;4.95;;
52126;SDS011;38120;53.176;6.614;2022-12-29T12:14:15;19.92;;;5.13;;
52126;SDS011;38120;53.176;6.614;2022-12-29T12:22:00;12.80;;;3.78;;
52126;SDS011;38120;53.176;6.614;2022-12-29T12:24:51;13.68;;;3.90;;
52126;SDS011;38120;53.176;6.614;2022-12-29T12:27:20;12.18;;;2.72;;
52126;SDS011;38120;53.176;6.614;2022-12-29T12:32:41;14.02;;;4.45;;
52126;SDS011;38120;53.176;6.614;2022-12-29T12:35:14;14.85;;;3.58;;
52126;SDS011;38120;53.176;6.614;2022-12-29T12:37:56;15.88;;;3.58;;
52126;SDS011;38120;53.176;6.614;2022-12-29T12:54:13;9.90;;;2.83;;
52126;SDS011;38120;53.176;6.614;2022-12-29T12:57:13;9.00;;;2.97;;
52126;SDS011;38120;53.176;6.614;2022-12-29T13:08:22;6.88;;;1.88;;
52126;SDS011;38120;53.176;6.614;2022-12-29T13:19:04;8.95;;;2.60;;
52126;SDS011;38120;53.176;6.614;2022-12-29T13:25:07;11.77;;;2.40;;
52126;SDS011;38120;53.176;6.614;2022-12-29T13:30:35;7.15;;;1.95;;
52126;SDS011;38120;53.176;6.614;2022-12-29T13:33:39;5.97;;;1.55;;
52126;SDS011;38120;53.176;6.614;2022-12-29T13:36:33;7.85;;;1.92;;
52126;SDS011;38120;53.176;6.614;2022-12-29T13:39:19;7.13;;;1.67;;
52126;SDS011;38120;53.176;6.614;2022-12-29T13:41:53;7.32;;;1.98;;
52126;SDS011;38120;53.176;6.614;2022-12-29T13:44:25;13.15;;;2.58;;
52126;SDS011;38120;53.176;6.614;2022-12-29T13:46:57;12.47;;;2.27;;
52126;SDS011;38120;53.176;6.614;2022-12-29T13:49:45;12.13;;;4.15;;
52126;SDS011;38120;53.176;6.614;2022-12-29T14:00:46;8.25;;;2.30;;
52126;SDS011;38120;53.176;6.614;2022-12-29T14:09:01;9.60;;;2.53;;
52126;SDS011;38120;53.176;6.614;2022-12-29T14:11:33;10.88;;;3.00;;
52126;SDS011;38120;53.176;6.614;2022-12-29T14:14:11;11.05;;;2.63;;
52126;SDS011;38120;53.176;6.614;2022-12-29T14:16:45;8.02;;;1.98;;
52126;SDS011;38120;53.176;6.614;2022-12-29T14:19:12;12.85;;;2.17;;
52126;SDS011;38120;53.176;6.614;2022-12-29T14:21:39;7.50;;;1.95;;
52126;SDS011;38120;53.176;6.614;2022-12-29T14:26:50;12.27;;;3.15;;
52126;SDS011;38120;53.176;6.614;2022-12-29T14:31:49;13.35;;;2.33;;
52126;SDS011;38120;53.176;6.614;2022-12-29T14:36:53;9.10;;;3.10;;
52126;SDS011;38120;53.176;6.614;2022-12-29T14:42:10;10.00;;;2.13;;
52126;SDS011;38120;53.176;6.614;2022-12-29T14:44:48;12.07;;;2.75;;
52126;SDS011;38120;53.176;6.614;2022-12-29T14:47:34;14.27;;;2.40;;
52126;SDS011;38120;53.176;6.614;2022-12-29T14:52:59;13.15;;;2.80;;
52126;SDS011;38120;53.176;6.614;2022-12-29T14:55:40;12.10;;;2.28;;
52126;SDS011;38120;53.176;6.614;2022-12-29T14:58:15;8.65;;;2.08;;
52126;SDS011;38120;53.176;6.614;2022-12-29T15:00:47;12.50;;;2.28;;
52126;SDS011;38120;53.176;6.614;2022-12-29T15:03:16;9.60;;;2.72;;
52126;SDS011;38120;53.176;6.614;2022-12-29T15:05:50;13.82;;;3.08;;
52126;SDS011;38120;53.176;6.614;2022-12-29T15:08:28;11.43;;;3.25;;
52126;SDS011;38120;53.176;6.614;2022-12-29T15:13:34;10.63;;;2.58;;
52126;SDS011;38120;53.176;6.614;2022-12-29T15:16:02;19.10;;;3.72;;
52126;SDS011;38120;53.176;6.614;2022-12-29T15:18:29;12.38;;;3.03;;
52126;SDS011;38120;53.176;6.614;2022-12-29T15:21:00;11.82;;;2.85;;
52126;SDS011;38120;53.176;6.614;2022-12-29T15:23:29;12.73;;;2.78;;
52126;SDS011;38120;53.176;6.614;2022-12-29T15:25:58;13.18;;;3.25;;
52126;SDS011;38120;53.176;6.614;2022-12-29T15:28:26;11.93;;;2.78;;
52126;SDS011;38120;53.176;6.614;2022-12-29T15:31:02;11.50;;;2.50;;
52126;SDS011;38120;53.176;6.614;2022-12-29T15:33:30;12.60;;;3.05;;
52126;SDS011;38120;53.176;6.614;2022-12-29T15:35:57;10.07;;;2.67;;
52126;SDS011;38120;53.176;6.614;2022-12-29T15:38:29;18.48;;;3.83;;
52126;SDS011;38120;53.176;6.614;2022-12-29T15:43:49;8.38;;;2.45;;
52126;SDS011;38120;53.176;6.614;2022-12-29T15:46:21;11.02;;;2.22;;
52126;SDS011;38120;53.176;6.614;2022-12-29T15:48:47;12.07;;;2.67;;
52126;SDS011;38120;53.176;6.614;2022-12-29T15:51:20;10.07;;;3.20;;
52126;SDS011;38120;53.176;6.614;2022-12-29T15:53:55;8.32;;;2.55;;
52126;SDS011;38120;53.176;6.614;2022-12-29T15:56:21;14.98;;;2.80;;
52126;SDS011;38120;53.176;6.614;2022-12-29T15:58:48;9.80;;;2.25;;
52126;SDS011;38120;53.176;6.614;2022-12-29T16:01:22;9.27;;;2.47;;
52126;SDS011;38120;53.176;6.614;2022-12-29T16:03:52;12.30;;;2.78;;
52126;SDS011;38120;53.176;6.614;2022-12-29T16:09:46;9.80;;;3.05;;
52126;SDS011;38120;53.176;6.614;2022-12-29T16:11:58;14.35;;;2.60;;
52126;SDS011;38120;53.176;6.614;2022-12-29T16:14:43;13.65;;;3.10;;
52126;SDS011;38120;53.176;6.614;2022-12-29T16:17:13;12.10;;;2.35;;
52126;SDS011;38120;53.176;6.614;2022-12-29T16:22:41;8.57;;;2.28;;
52126;SDS011;38120;53.176;6.614;2022-12-29T16:27:40;12.98;;;2.78;;
52126;SDS011;38120;53.176;6.614;2022-12-29T16:30:16;11.75;;;3.28;;
52126;SDS011;38120;53.176;6.614;2022-12-29T16:32:47;11.10;;;3.30;;
52126;SDS011;38120;53.176;6.614;2022-12-29T16:35:19;5.63;;;1.48;;
52126;SDS011;38120;53.176;6.614;2022-12-29T16:40:51;6.97;;;1.00;;
52126;SDS011;38120;53.176;6.614;2022-12-29T16:43:26;4.00;;;0.77;;
52126;SDS011;38120;53.176;6.614;2022-12-29T16:48:25;3.50;;;0.93;;
52126;SDS011;38120;53.176;6.614;2022-12-29T16:50:52;8.40;;;2.00;;
52126;SDS011;38120;53.176;6.614;2022-12-29T16:53:41;4.00;;;1.65;;
52126;SDS011;38120;53.176;6.614;2022-12-29T16:56:14;7.93;;;1.58;;
52126;SDS011;38120;53.176;6.614;2022-12-29T16:58:47;4.80;;;1.35;;
52126;SDS011;38120;53.176;6.614;2022-12-29T17:01:15;3.90;;;1.45;;
52126;SDS011;38120;53.176;6.614;2022-12-29T17:03:51;3.20;;;1.48;;
52126;SDS011;38120;53.176;6.614;2022-12-29T17:06:24;4.68;;;1.83;;
52126;SDS011;38120;53.176;6.614;2022-12-29T17:08:50;2.70;;;1.30;;
52126;SDS011;38120;53.176;6.614;2022-12-29T17:11:21;2.95;;;1.40;;
52126;SDS011;38120;53.176;6.614;2022-12-29T17:14:15;4.78;;;1.48;;
52126;SDS011;38120;53.176;6.614;2022-12-29T17:16:47;4.25;;;1.48;;
52126;SDS011;38120;53.176;6.614;2022-12-29T17:19:17;8.85;;;2.00;;
52126;SDS011;38120;53.176;6.614;2022-12-29T17:21:45;5.15;;;1.55;;
52126;SDS011;38120;53.176;6.614;2022-12-29T17:24:18;11.70;;;1.88;;
52126;SDS011;38120;53.176;6.614;2022-12-29T17:26:45;5.18;;;1.85;;
52126;SDS011;38120;53.176;6.614;2022-12-29T17:29:24;9.80;;;3.50;;
52126;SDS011;38120;53.176;6.614;2022-12-29T17:31:57;9.98;;;2.60;;
52126;SDS011;38120;53.176;6.614;2022-12-29T17:34:24;14.13;;;5.95;;
52126;SDS011;38120;53.176;6.614;2022-12-29T17:36:50;26.63;;;11.30;;
52126;SDS011;38120;53.176;6.614;2022-12-29T17:39:16;12.55;;;3.65;;
52126;SDS011;38120;53.176;6.614;2022-12-29T17:41:41;8.20;;;3.60;;
52126;SDS011;38120;53.176;6.614;2022-12-29T17:44:08;8.27;;;2.70;;
52126;SDS011;38120;53.176;6.614;2022-12-29T17:46:41;9.98;;;2.65;;
52126;SDS011;38120;53.176;6.614;2022-12-29T17:49:13;16.43;;;5.80;;
52126;SDS011;38120;53.176;6.614;2022-12-29T17:51:42;9.32;;;2.80;;
52126;SDS011;38120;53.176;6.614;2022-12-29T17:54:22;14.32;;;4.65;;
52126;SDS011;38120;53.176;6.614;2022-12-29T17:56:50;8.95;;;2.92;;
52126;SDS011;38120;53.176;6.614;2022-12-29T17:59:16;8.65;;;2.28;;
52126;SDS011;38120;53.176;6.614;2022-12-29T18:01:43;10.80;;;4.50;;
52126;SDS011;38120;53.176;6.614;2022-12-29T18:04:11;13.32;;;4.22;;
52126;SDS011;38120;53.176;6.614;2022-12-29T18:06:38;9.23;;;3.80;;
52126;SDS011;38120;53.176;6.614;2022-12-29T18:11:33;15.93;;;4.50;;
52126;SDS011;38120;53.176;6.614;2022-12-29T18:14:00;20.33;;;8.88;;
52126;SDS011;38120;53.176;6.614;2022-12-29T18:16:26;12.73;;;3.75;;